Time;durP1;ratioP1;P1;durP2;ratioP2;P2;SDS_P1;SDS_P2;PMS_P1;PMS_P2;Temp;Humidity;BMP_temperature;BMP_pressure;BME280_temperature;BME280_humidity;BME280_pressure;Samples;Min_cycle;Max_cycle;Signal;HPM_P1;HPM_P2
2024/03/23 00:01:40;;;;;;;11.93;5.20;;;;;;;7.20;56.49;99840.31;5090830;28;20459;-40
2024/03/23 00:04:07;;;;;;;9.90;4.95;;;;;;;7.48;56.27;99839.72;5090844;28;20024;-40
2024/03/23 00:06:34;;;;;;;9.82;5.60;;;;;;;7.62;55.86;99837.09;5090486;28;20032;-40
2024/03/23 00:09:00;;;;;;;12.95;5.43;;;;;;;7.60;55.49;99827.69;5086049;28;20043;-37
2024/03/23 00:11:27;;;;;;;8.52;5.25;;;;;;;7.79;55.49;99835.06;5089916;28;20024;-40
2024/03/23 00:13:53;;;;;;;12.38;5.63;;;;;;;7.58;55.15;99833.16;5090258;28;20038;-41
2024/03/23 00:16:21;;;;;;;9.82;5.45;;;;;;;7.87;54.81;99838.66;5090580;28;20024;-39
2024/03/23 00:18:48;;;;;;;9.27;5.22;;;;;;;7.58;55.45;99837.63;5090878;28;20032;-38
2024/03/23 00:21:14;;;;;;;12.10;5.78;;;;;;;7.59;55.65;99821.53;5090754;28;20197;-40
2024/03/23 00:23:41;;;;;;;12.25;6.35;;;;;;;7.59;55.64;99823.38;5090592;28;20460;-39
2024/03/23 00:26:07;;;;;;;11.70;6.00;;;;;;;7.42;56.39;99822.72;5090479;28;20024;-40
2024/03/23 00:28:33;;;;;;;12.98;5.35;;;;;;;7.49;56.65;99828.13;5090057;28;20036;-40
2024/03/23 00:31:00;;;;;;;10.82;5.78;;;;;;;7.14;57.95;99825.13;5090283;28;20028;-40
2024/03/23 00:33:26;;;;;;;13.43;5.90;;;;;;;6.98;58.50;99832.22;5090573;28;20023;-40
2024/03/23 00:35:53;;;;;;;11.15;6.50;;;;;;;6.97;58.80;99835.06;5089513;28;20031;-38
2024/03/23 00:38:21;;;;;;;11.77;6.40;;;;;;;7.05;59.23;99834.97;5089291;28;20369;-40
2024/03/23 00:40:48;;;;;;;13.77;6.43;;;;;;;6.82;59.13;99808.53;5088713;28;20039;-40
2024/03/23 00:43:14;;;;;;;16.45;6.00;;;;;;;7.13;59.06;99832.25;5089594;28;20032;-39
2024/03/23 00:45:41;;;;;;;13.60;6.30;;;;;;;7.30;58.77;99835.56;5089145;28;20410;-38
2024/03/23 00:48:07;;;;;;;13.65;6.40;;;;;;;7.40;58.32;99836.13;5089146;28;20085;-39
2024/03/23 00:50:35;;;;;;;13.20;6.45;;;;;;;7.13;58.40;99840.19;5090131;28;20035;-39
2024/03/23 00:53:02;;;;;;;17.33;6.28;;;;;;;6.91;59.24;99835.75;5090140;28;20032;-40
2024/03/23 00:55:27;;;;;;;12.82;6.40;;;;;;;6.64;60.55;99838.75;5090005;28;20035;-40
2024/03/23 00:57:52;;;;;;;13.65;6.05;;;;;;;6.49;61.29;99840.47;5090314;28;20020;-39
2024/03/23 01:00:18;;;;;;;13.00;6.82;;;;;;;6.47;61.38;99842.47;5090435;28;20028;-40
2024/03/23 01:02:43;;;;;;;15.00;6.72;;;;;;;6.26;62.28;99838.66;5090258;28;20020;-38
2024/03/23 01:05:09;;;;;;;14.57;6.45;;;;;;;5.78;63.92;99845.72;5090244;28;20115;-37
2024/03/23 01:07:34;;;;;;;10.88;6.40;;;;;;;5.99;63.06;99837.25;5089979;28;20020;-39
2024/03/23 01:09:59;;;;;;;12.48;6.43;;;;;;;5.93;63.49;99837.09;5088753;28;20119;-37
2024/03/23 01:12:25;;;;;;;14.27;6.78;;;;;;;5.66;64.81;99828.59;5090554;28;20088;-40
2024/03/23 01:14:50;;;;;;;15.05;7.22;;;;;;;5.74;65.30;99828.56;5089940;28;20102;-37
2024/03/23 01:17:16;;;;;;;18.33;7.20;;;;;;;5.37;66.70;99824.72;5089938;28;20017;-40
2024/03/23 01:19:41;;;;;;;13.88;7.38;;;;;;;5.34;66.57;99829.50;5090100;28;20023;-38
2024/03/23 01:22:07;;;;;;;13.65;7.07;;;;;;;5.73;65.21;99826.09;5090128;28;20023;-40
2024/03/23 01:24:32;;;;;;;12.98;7.20;;;;;;;6.40;63.27;99828.34;5090067;28;20043;-37
2024/03/23 01:26:58;;;;;;;13.57;6.90;;;;;;;5.88;64.36;99830.53;5090429;28;20499;-39
2024/03/23 01:29:23;;;;;;;14.40;7.72;;;;;;;5.93;64.57;99826.53;5090161;28;20644;-38
2024/03/23 01:31:49;;;;;;;17.10;7.10;;;;;;;6.01;64.04;99835.25;5090063;28;20434;-39
2024/03/23 01:34:14;;;;;;;17.33;7.20;;;;;;;5.52;65.45;99830.13;5089312;28;20456;-39
2024/03/23 01:36:39;;;;;;;14.98;7.07;;;;;;;5.54;65.96;99822.03;5089957;28;20024;-40
2024/03/23 01:39:05;;;;;;;11.50;6.60;;;;;;;5.52;66.21;99819.56;5089618;28;20144;-40
2024/03/23 01:41:30;;;;;;;11.05;6.88;;;;;;;5.46;66.56;99829.00;5090010;28;20035;-39
2024/03/23 01:43:56;;;;;;;15.98;6.75;;;;;;;5.48;66.41;99832.28;5089742;28;20039;-40
2024/03/23 01:46:22;;;;;;;12.80;7.07;;;;;;;5.53;66.12;99823.84;5089659;28;20031;-40
2024/03/23 01:48:47;;;;;;;13.02;6.80;;;;;;;5.62;65.98;99822.03;5090028;28;20035;-38
2024/03/23 01:51:13;;;;;;;15.93;8.00;;;;;;;5.55;66.44;99824.50;5091663;28;20504;-38
2024/03/23 01:53:38;;;;;;;15.15;8.10;;;;;;;5.47;66.06;99827.16;5093517;28;20028;-39
2024/03/23 01:56:05;;;;;;;13.88;7.47;;;;;;;5.58;65.68;99829.44;5093523;28;20103;-39
2024/03/23 01:58:30;;;;;;;13.98;7.68;;;;;;;5.36;67.48;99832.78;5093651;28;20118;-41
2024/03/23 02:00:57;;;;;;;18.67;8.75;;;;;;;5.47;67.05;99840.38;5093607;28;20127;-40
2024/03/23 02:03:24;;;;;;;16.33;8.32;;;;;;;5.58;66.67;99833.88;5093556;28;20521;-41
2024/03/23 02:05:50;;;;;;;18.55;8.40;;;;;;;5.44;67.25;99836.22;5093454;28;20055;-38
2024/03/23 02:08:17;;;;;;;14.50;8.25;;;;;;;5.39;67.38;99835.09;5092837;28;20178;-40
2024/03/23 02:10:43;;;;;;;20.13;8.60;;;;;;;5.67;66.76;99830.25;5093503;28;20024;-39
2024/03/23 02:13:08;;;;;;;19.00;8.65;;;;;;;5.79;65.71;99833.38;5093579;28;20521;-39
2024/03/23 02:15:34;;;;;;;21.27;9.00;;;;;;;5.76;66.15;99828.41;5092969;28;20024;-39
2024/03/23 02:17:59;;;;;;;17.88;9.23;;;;;;;5.52;66.35;99830.13;5093141;28;20035;-38
2024/03/23 02:20:24;;;;;;;20.33;9.00;;;;;;;5.69;66.53;99833.53;5092818;28;20472;-39
2024/03/23 02:22:51;;;;;;;20.17;9.00;;;;;;;5.72;66.20;99830.56;5092839;28;20397;-38
2024/03/23 02:25:17;;;;;;;18.83;9.57;;;;;;;5.59;65.96;99831.09;5093226;28;20391;-38
2024/03/23 02:27:42;;;;;;;19.58;8.93;;;;;;;5.76;66.18;99826.59;5092655;28;20472;-39
2024/03/23 02:30:08;;;;;;;19.65;9.77;;;;;;;5.88;65.57;99819.94;5093042;28;20092;-39
2024/03/23 02:32:33;;;;;;;18.75;9.48;;;;;;;5.86;65.57;99829.88;5092735;28;20020;-39
2024/03/23 02:34:58;;;;;;;19.10;9.05;;;;;;;6.18;64.14;99828.09;5092442;28;20177;-39
2024/03/23 02:37:24;;;;;;;20.30;9.57;;;;;;;6.18;63.98;99830.72;5092544;28;20067;-39
2024/03/23 02:39:49;;;;;;;18.67;9.15;;;;;;;6.22;63.90;99829.38;5092795;28;20040;-39
2024/03/23 02:42:16;;;;;;;16.90;8.88;;;;;;;6.04;64.53;99828.84;5092703;28;20069;-39
2024/03/23 02:44:42;;;;;;;24.80;9.45;;;;;;;6.00;65.04;99828.34;5092779;28;20020;-35
2024/03/23 02:47:07;;;;;;;18.60;9.30;;;;;;;5.95;65.23;99825.41;5092519;28;20334;-37
2024/03/23 02:49:33;;;;;;;18.33;9.35;;;;;;;6.07;65.61;99820.53;5092457;28;20507;-37
2024/03/23 02:51:58;;;;;;;18.55;9.52;;;;;;;5.94;65.22;99818.44;5092570;28;20067;-39
2024/03/23 02:54:23;;;;;;;15.27;8.10;;;;;;;5.97;65.71;99827.88;5092425;28;20024;-37
2024/03/23 02:56:49;;;;;;;19.45;9.10;;;;;;;6.05;65.51;99822.53;5092376;28;20028;-39
2024/03/23 02:59:14;;;;;;;16.05;8.57;;;;;;;5.88;65.78;99825.25;5092055;28;20028;-38
2024/03/23 03:01:39;;;;;;;17.67;9.48;;;;;;;6.16;65.03;99822.16;5091929;28;20406;-39
2024/03/23 03:04:05;;;;;;;17.95;9.00;;;;;;;5.94;65.90;99820.25;5092150;28;20199;-37
2024/03/23 03:06:30;;;;;;;15.95;8.98;;;;;;;5.88;66.54;99819.94;5091980;28;20082;-39
2024/03/23 03:08:56;;;;;;;18.85;9.25;;;;;;;5.74;67.24;99823.28;5092501;28;20038;-37
2024/03/23 03:11:21;;;;;;;19.00;9.27;;;;;;;5.86;67.08;99818.47;5092384;28;20020;-39
2024/03/23 03:13:46;;;;;;;20.55;9.93;;;;;;;6.07;66.45;99815.25;5091977;28;20659;-40
2024/03/23 03:16:12;;;;;;;15.52;8.77;;;;;;;6.19;65.84;99824.47;5091915;28;20077;-39
2024/03/23 03:18:38;;;;;;;17.00;9.07;;;;;;;6.24;65.59;99813.38;5092287;28;20024;-39
2024/03/23 03:21:05;;;;;;;18.52;9.60;;;;;;;6.18;65.63;99812.25;5091606;28;20024;-40
2024/03/23 03:23:31;;;;;;;23.77;9.23;;;;;;;6.30;64.95;99807.38;5091588;28;20043;-39
2024/03/23 03:25:57;;;;;;;17.30;9.20;;;;;;;6.32;64.36;99815.13;5091203;28;20428;-38
2024/03/23 03:28:22;;;;;;;21.55;9.57;;;;;;;6.11;65.24;99815.75;5086952;28;20108;-39
2024/03/23 03:30:47;;;;;;;19.90;9.43;;;;;;;5.76;66.45;99816.03;5071329;28;20499;-38
2024/03/23 03:33:13;;;;;;;17.73;9.20;;;;;;;5.64;67.43;99815.56;5080965;28;20044;-39
2024/03/23 03:35:38;;;;;;;17.45;9.52;;;;;;;5.77;66.99;99812.41;5091196;28;20430;-40
2024/03/23 03:38:04;;;;;;;21.13;10.15;;;;;;;5.64;67.42;99814.75;5091260;28;20079;-38
2024/03/23 03:40:30;;;;;;;19.00;9.30;;;;;;;5.27;69.10;99822.25;5091462;28;20032;-37
2024/03/23 03:42:55;;;;;;;23.08;10.35;;;;;;;5.52;68.00;99816.09;5091265;28;20027;-40
2024/03/23 03:45:21;;;;;;;21.08;9.93;;;;;;;5.42;68.57;99825.00;5091286;28;20571;-40
2024/03/23 03:47:46;;;;;;;20.23;10.00;;;;;;;5.76;66.98;99821.31;5091091;28;20102;-40
2024/03/23 03:50:11;;;;;;;23.48;9.88;;;;;;;5.86;67.17;99823.75;5091725;28;20464;-39
2024/03/23 03:52:37;;;;;;;23.30;10.10;;;;;;;5.98;65.60;99830.34;5091709;28;20024;-40
2024/03/23 03:55:03;;;;;;;21.02;10.07;;;;;;;6.04;65.43;99834.13;5092119;28;20105;-40
2024/03/23 03:57:29;;;;;;;18.83;9.73;;;;;;;6.02;64.98;99831.66;5090442;28;20020;-40
2024/03/23 03:59:54;;;;;;;18.52;9.88;;;;;;;5.99;64.59;99836.44;5091568;28;20031;-41
2024/03/23 04:02:19;;;;;;;17.23;9.73;;;;;;;5.71;64.92;99828.91;5091654;28;20028;-41
2024/03/23 04:04:45;;;;;;;16.52;9.50;;;;;;;5.72;65.47;99835.03;5092098;28;20034;-40
2024/03/23 04:07:10;;;;;;;20.38;9.32;;;;;;;5.71;65.21;99839.47;5091719;28;20553;-40
2024/03/23 04:09:35;;;;;;;19.92;10.02;;;;;;;5.56;65.67;99836.72;5091977;28;20428;-40
2024/03/23 04:12:01;;;;;;;19.52;10.35;;;;;;;5.57;65.19;99838.34;5091975;28;20033;-40
2024/03/23 04:14:26;;;;;;;18.88;10.00;;;;;;;5.45;65.64;99835.25;5091787;28;20027;-40
2024/03/23 04:16:51;;;;;;;18.30;9.75;;;;;;;5.40;65.80;99842.84;5091716;28;20023;-41
2024/03/23 04:19:17;;;;;;;19.60;10.15;;;;;;;5.29;66.30;99851.09;5091423;28;20103;-39
2024/03/23 04:21:42;;;;;;;19.63;9.63;;;;;;;5.44;66.43;99851.25;5090995;28;20050;-40
2024/03/23 04:24:07;;;;;;;18.30;9.80;;;;;;;5.50;66.06;99850.56;5091360;28;20468;-40
2024/03/23 04:26:43;;;;;;;18.70;10.48;;;;;;;5.52;66.12;99851.25;5091181;28;20089;-39
2024/03/23 04:29:08;;;;;;;21.38;10.43;;;;;;;5.67;66.51;99849.56;5091769;28;20107;-41
2024/03/23 04:31:34;;;;;;;20.05;9.95;;;;;;;5.59;65.62;99844.28;5091140;28;20154;-40
2024/03/23 04:34:01;;;;;;;17.75;9.35;;;;;;;5.54;66.09;99854.56;5091067;28;20103;-39
2024/03/23 04:36:26;;;;;;;15.20;8.90;;;;;;;5.43;66.55;99849.63;5091544;28;20028;-39
2024/03/23 04:38:52;;;;;;;13.48;8.48;;;;;;;5.36;66.92;99852.09;5090616;28;20127;-39
2024/03/23 04:41:18;;;;;;;16.70;8.50;;;;;;;5.42;67.08;99854.03;5091559;28;20474;-39
2024/03/23 04:43:43;;;;;;;19.48;9.55;;;;;;;5.55;66.28;99860.66;5091229;28;20023;-39
2024/03/23 04:46:08;;;;;;;17.15;9.82;;;;;;;5.73;65.71;99863.91;5090762;28;20115;-39
2024/03/23 04:48:34;;;;;;;16.88;8.73;;;;;;;5.63;66.23;99869.34;5090916;28;20024;-39
2024/03/23 04:50:59;;;;;;;18.58;8.57;;;;;;;6.15;64.61;99861.97;5091049;28;20085;-40
2024/03/23 04:53:28;;;;;;;19.58;8.93;;;;;;;6.43;63.26;99860.50;5091044;28;20032;-39
2024/03/23 04:55:55;;;;;;;17.45;8.63;;;;;;;6.65;62.78;99858.91;5091010;28;20032;-39
2024/03/23 04:58:20;;;;;;;14.65;8.07;;;;;;;6.79;62.13;99859.13;5091045;28;20028;-40
2024/03/23 05:00:45;;;;;;;16.42;8.25;;;;;;;6.58;62.85;99857.94;5090992;28;20020;-40
2024/03/23 05:03:11;;;;;;;12.05;7.60;;;;;;;6.67;62.01;99863.19;5091368;28;20028;-39
2024/03/23 05:05:36;;;;;;;14.35;7.32;;;;;;;6.64;62.10;99853.78;5091556;28;20035;-39
2024/03/23 05:08:01;;;;;;;18.20;8.07;;;;;;;7.01;61.17;99857.50;5091239;28;20028;-40
2024/03/23 05:10:27;;;;;;;13.90;7.60;;;;;;;7.15;60.33;99863.84;5091724;28;20024;-37
2024/03/23 05:12:52;;;;;;;11.70;7.53;;;;;;;7.75;58.81;99860.28;5091517;28;20028;-37
2024/03/23 05:15:17;;;;;;;12.60;6.93;;;;;;;7.56;59.25;99855.53;5091505;28;20024;-39
2024/03/23 05:17:43;;;;;;;15.05;8.23;;;;;;;7.82;57.88;99858.56;5091265;28;20031;-40
2024/03/23 05:20:09;;;;;;;12.77;7.90;;;;;;;7.94;57.71;99852.78;5091509;28;20539;-40
2024/03/23 05:22:35;;;;;;;13.68;7.20;;;;;;;8.21;56.03;99862.72;5091620;28;20016;-40
2024/03/23 05:25:04;;;;;;;13.07;7.47;;;;;;;8.19;56.51;99851.50;5091491;28;20035;-38
2024/03/23 05:27:29;;;;;;;12.07;6.65;;;;;;;8.36;55.75;99846.00;5095294;28;20434;-40
2024/03/23 05:29:54;;;;;;;11.85;6.70;;;;;;;8.72;54.78;99847.81;5095439;28;20028;-37
2024/03/23 05:32:20;;;;;;;12.20;6.82;;;;;;;9.04;53.52;99856.28;5095411;28;20464;-39
2024/03/23 05:34:45;;;;;;;12.93;6.80;;;;;;;9.22;52.92;99853.19;5095343;28;20407;-37
2024/03/23 05:37:11;;;;;;;17.70;9.40;;;;;;;9.61;52.08;99855.31;5095058;28;20468;-40
2024/03/23 05:39:36;;;;;;;12.35;7.35;;;;;;;9.60;51.05;99853.69;5095256;28;20047;-40
2024/03/23 05:42:01;;;;;;;12.27;6.68;;;;;;;9.70;50.94;99855.97;5095485;28;20022;-40
2024/03/23 05:44:27;;;;;;;11.73;6.25;;;;;;;10.05;50.00;99848.81;5095426;28;20095;-40
2024/03/23 05:46:52;;;;;;;12.70;6.80;;;;;;;10.04;49.37;99857.81;5094874;28;20480;-37
2024/03/23 05:49:18;;;;;;;12.77;6.80;;;;;;;10.15;49.31;99837.81;5094214;28;20534;-39
2024/03/23 05:51:43;;;;;;;13.77;7.43;;;;;;;10.32;48.77;99851.63;5094587;28;20536;-39
2024/03/23 05:54:09;;;;;;;14.35;8.80;;;;;;;10.93;47.36;99846.25;5094691;28;20031;-38
2024/03/23 05:56:34;;;;;;;14.70;8.95;;;;;;;11.23;46.38;99845.03;5094971;28;20341;-41
2024/03/23 05:59:00;;;;;;;14.13;8.20;;;;;;;10.99;46.64;99849.94;5094869;28;20423;-39
2024/03/23 06:01:28;;;;;;;12.98;7.97;;;;;;;11.59;46.09;99849.91;5094936;28;20039;-40
2024/03/23 06:03:54;;;;;;;11.10;6.70;;;;;;;11.48;45.79;99845.19;5095022;28;20077;-39
2024/03/23 06:06:19;;;;;;;13.77;7.18;;;;;;;11.44;46.43;99847.50;5094326;28;20024;-40
2024/03/23 06:08:45;;;;;;;13.15;6.93;;;;;;;11.71;45.37;99844.78;5094165;28;20042;-38
2024/03/23 06:11:10;;;;;;;12.02;7.18;;;;;;;12.11;44.02;99852.69;5094425;28;20036;-40
2024/03/23 06:13:36;;;;;;;11.82;7.22;;;;;;;12.45;43.65;99854.19;5094584;28;20031;-40
2024/03/23 06:16:01;;;;;;;12.13;7.25;;;;;;;12.49;42.72;99855.41;5094090;28;20059;-40
2024/03/23 06:18:27;;;;;;;10.40;6.93;;;;;;;12.62;42.39;99848.34;5093907;28;20095;-39
2024/03/23 06:20:53;;;;;;;17.08;7.32;;;;;;;12.75;41.65;99837.59;5094016;28;20024;-41
2024/03/23 06:23:20;;;;;;;11.70;7.50;;;;;;;12.78;41.83;99845.19;5094231;28;20027;-40
2024/03/23 06:25:46;;;;;;;13.18;7.60;;;;;;;13.10;41.45;99851.31;5094039;28;20027;-41
2024/03/23 06:28:11;;;;;;;14.27;7.85;;;;;;;13.47;40.76;99845.28;5094304;28;20063;-40
2024/03/23 06:30:37;;;;;;;12.57;7.55;;;;;;;13.55;40.02;99833.50;5094452;28;20048;-27
2024/03/23 06:33:02;;;;;;;11.07;6.90;;;;;;;13.41;39.89;99849.66;5094865;28;20020;-28
2024/03/23 06:35:27;;;;;;;13.82;7.07;;;;;;;13.41;40.25;99854.19;5094546;28;20024;-26
2024/03/23 06:37:53;;;;;;;14.20;8.13;;;;;;;13.42;40.98;99845.97;5092706;28;20080;-28
2024/03/23 06:40:18;;;;;;;12.32;7.60;;;;;;;13.68;39.90;99847.53;5094164;28;20643;-26
2024/03/23 06:42:43;;;;;;;12.02;7.82;;;;;;;13.63;39.64;99838.53;5094099;28;20020;-26
2024/03/23 06:45:09;;;;;;;13.18;7.38;;;;;;;14.03;38.67;99846.13;5093761;28;20031;-27
2024/03/23 06:47:34;;;;;;;12.10;7.30;;;;;;;14.51;37.86;99850.72;5094065;28;20032;-26
2024/03/23 06:50:03;;;;;;;13.93;7.25;;;;;;;14.71;37.89;99845.09;5094027;28;20020;-27
2024/03/23 06:52:29;;;;;;;11.77;6.83;;;;;;;14.35;37.55;99843.28;5093932;28;20032;-28
2024/03/23 06:54:55;;;;;;;9.73;6.85;;;;;;;15.15;36.32;99845.66;5093621;28;20327;-27
2024/03/23 06:57:20;;;;;;;13.25;7.22;;;;;;;15.11;36.91;99841.81;5092895;28;20028;-27
2024/03/23 06:59:45;;;;;;;11.15;6.90;;;;;;;14.96;36.20;99842.25;5093074;28;20058;-27
2024/03/23 07:02:11;;;;;;;11.55;7.47;;;;;;;15.17;36.76;99848.94;5093041;28;20024;-28
2024/03/23 07:04:37;;;;;;;11.48;7.35;;;;;;;15.59;35.76;99835.44;5082196;28;20068;-29
2024/03/23 07:07:02;;;;;;;10.95;6.82;;;;;;;15.08;36.53;99841.44;5093060;28;20035;-27
2024/03/23 07:09:29;;;;;;;12.65;7.60;;;;;;;15.40;36.24;99842.78;5092704;28;20586;-26
2024/03/23 07:11:55;;;;;;;12.15;7.38;;;;;;;15.60;36.01;99839.75;5093127;28;20539;-29
2024/03/23 07:14:22;;;;;;;12.15;7.50;;;;;;;15.63;35.39;99831.25;5092452;28;20102;-28
2024/03/23 07:16:48;;;;;;;11.73;7.40;;;;;;;15.45;36.40;99834.84;5092410;28;20013;-28
2024/03/23 07:19:16;;;;;;;14.82;8.02;;;;;;;15.12;36.65;99831.94;5092473;28;20020;-28
2024/03/23 07:21:41;;;;;;;23.33;14.45;;;;;;;15.42;36.01;99827.28;5092377;28;20032;-28
2024/03/23 07:24:07;;;;;;;14.60;9.90;;;;;;;15.73;34.66;99829.84;5092543;28;20024;-26
2024/03/23 07:26:32;;;;;;;15.95;8.32;;;;;;;16.11;34.50;99825.84;5092614;28;20036;-28
2024/03/23 07:28:57;;;;;;;12.38;7.30;;;;;;;17.15;33.53;99822.06;5092902;28;20030;-29
2024/03/23 07:31:24;;;;;;;13.85;7.70;;;;;;;17.40;32.70;99824.31;5092775;28;20107;-27
2024/03/23 07:33:49;;;;;;;15.60;8.27;;;;;;;17.07;32.93;99825.16;5092766;28;20105;-28
2024/03/23 07:36:15;;;;;;;11.60;7.25;;;;;;;16.79;32.90;99824.97;5092572;28;20477;-28
2024/03/23 07:38:41;;;;;;;13.10;7.47;;;;;;;16.98;32.75;99824.75;5092240;28;20562;-28
2024/03/23 07:41:25;;;;;;;16.48;8.18;;;;;;;17.18;32.69;99808.94;5092717;28;20062;-26
2024/03/23 07:43:50;;;;;;;16.55;8.05;;;;;;;16.88;32.98;99822.69;5092370;28;20031;-28
2024/03/23 07:46:16;;;;;;;10.43;7.55;;;;;;;16.63;33.38;99820.34;5092161;28;20034;-27
2024/03/23 07:48:42;;;;;;;9.90;7.15;;;;;;;17.00;32.50;99814.56;5091982;28;20055;-28
2024/03/23 07:51:07;;;;;;;15.57;7.63;;;;;;;16.88;33.56;99811.16;5092239;28;20039;-27
2024/03/23 07:53:33;;;;;;;14.07;8.20;;;;;;;17.51;32.26;99804.56;5092185;28;20028;-27
2024/03/23 07:56:01;;;;;;;11.45;7.53;;;;;;;17.31;32.38;99807.00;5092293;28;20530;-27
2024/03/23 07:58:27;;;;;;;12.48;7.68;;;;;;;17.42;32.20;99803.41;5086421;28;20027;-27
2024/03/23 08:00:53;;;;;;;13.13;7.63;;;;;;;17.25;32.21;99806.09;5078592;28;20024;-28
2024/03/23 08:03:19;;;;;;;12.23;8.02;;;;;;;17.65;31.72;99798.84;5071910;28;20438;-28
2024/03/23 08:05:44;;;;;;;10.27;7.25;;;;;;;18.03;31.41;99799.88;5071473;28;20020;-29
2024/03/23 08:08:10;;;;;;;13.20;7.43;;;;;;;17.51;31.43;99787.63;5070827;28;20127;-27
2024/03/23 08:10:36;;;;;;;11.27;6.75;;;;;;;18.01;31.37;99794.78;5070265;28;20024;-28
2024/03/23 08:13:02;;;;;;;8.40;5.78;;;;;;;18.17;30.96;99790.38;5069945;28;20074;-28
2024/03/23 08:15:30;;;;;;;11.02;7.65;;;;;;;18.17;30.49;99782.28;5070494;28;20393;-28
2024/03/23 08:17:55;;;;;;;15.85;8.95;;;;;;;18.14;30.47;99785.47;5070832;28;20158;-29
2024/03/23 08:20:20;;;;;;;10.45;7.13;;;;;;;18.36;30.27;99786.25;5070268;28;20111;-26
2024/03/23 08:22:46;;;;;;;9.10;6.00;;;;;;;18.12;30.01;99779.53;5089612;28;20158;-28
2024/03/23 08:25:11;;;;;;;35.17;22.75;;;;;;;18.10;30.18;99770.91;5090964;28;20028;-28
2024/03/23 08:27:36;;;;;;;14.57;8.10;;;;;;;18.43;30.22;99774.47;5091159;28;20032;-27
2024/03/23 08:30:02;;;;;;;9.13;5.90;;;;;;;18.58;29.77;99769.22;5091359;28;20039;-27
2024/03/23 08:32:27;;;;;;;10.60;5.90;;;;;;;18.58;29.32;99763.81;5091401;28;20028;-28
2024/03/23 08:34:53;;;;;;;15.82;6.07;;;;;;;18.53;29.76;99767.31;5090381;28;20399;-27
2024/03/23 08:37:18;;;;;;;9.82;5.10;;;;;;;18.64;29.28;99764.69;5090572;28;20093;-26
2024/03/23 08:39:43;;;;;;;8.65;4.78;;;;;;;18.73;28.75;99757.75;5089044;28;20470;-27
2024/03/23 08:42:09;;;;;;;7.30;5.10;;;;;;;18.35;29.18;99760.41;5090502;28;20028;-27
2024/03/23 08:44:35;;;;;;;16.05;8.98;;;;;;;19.18;37.91;99764.59;5090986;28;20024;-28
2024/03/23 08:47:01;;;;;;;13.52;6.22;;;;;;;20.06;27.68;99746.97;5091256;28;20020;-27
2024/03/23 08:49:26;;;;;;;10.65;6.28;;;;;;;20.17;27.66;99742.41;5091456;28;20020;-27
2024/03/23 08:51:52;;;;;;;11.40;6.68;;;;;;;19.85;29.04;99741.50;5090898;28;20020;-26
2024/03/23 08:54:17;;;;;;;11.48;7.32;;;;;;;21.14;31.27;99750.56;5090616;28;20048;-26
2024/03/23 08:56:43;;;;;;;12.88;6.15;;;;;;;21.22;26.48;99741.88;5090725;28;20030;-26
2024/03/23 08:59:08;;;;;;;10.23;5.90;;;;;;;21.38;25.81;99734.56;5090927;28;20024;-26
2024/03/23 09:01:33;;;;;;;13.25;6.85;;;;;;;21.43;26.23;99726.41;5089593;28;20025;-27
2024/03/23 09:03:58;;;;;;;10.50;5.95;;;;;;;21.38;26.13;99725.59;5091184;28;20020;-27
2024/03/23 09:06:24;;;;;;;16.33;8.07;;;;;;;21.56;36.50;99718.81;5090855;28;20020;-27
2024/03/23 09:08:49;;;;;;;9.40;5.68;;;;;;;21.34;26.89;99716.41;5090241;28;20081;-28
2024/03/23 09:11:14;;;;;;;8.95;5.68;;;;;;;22.20;25.50;99720.66;5090390;28;20111;-27
2024/03/23 09:13:41;;;;;;;14.93;6.63;;;;;;;21.71;26.45;99707.13;5090886;28;20101;-27
2024/03/23 09:16:07;;;;;;;25.50;9.63;;;;;;;21.55;42.48;99718.00;5090581;28;20028;-27
2024/03/23 09:18:33;;;;;;;55.75;9.40;;;;;;;22.08;27.94;99703.91;5091088;28;20016;-27
2024/03/23 09:20:59;;;;;;;8.65;5.90;;;;;;;22.13;26.69;99705.81;5090598;28;20027;-26
2024/03/23 09:23:25;;;;;;;10.30;6.10;;;;;;;21.91;25.94;99695.34;5090793;28;20020;-26
2024/03/23 09:25:50;;;;;;;12.38;6.40;;;;;;;21.46;26.64;99692.59;5091228;28;20024;-26
2024/03/23 09:28:15;;;;;;;13.75;6.80;;;;;;;22.34;26.08;99691.03;5090883;28;20099;-27
2024/03/23 09:30:44;;;;;;;11.57;5.78;;;;;;;22.92;25.65;99681.31;5090851;28;20024;-27
2024/03/23 09:33:11;;;;;;;12.93;5.83;;;;;;;22.90;25.43;99680.78;5091305;28;20034;-27
2024/03/23 09:35:40;;;;;;;9.07;6.28;;;;;;;22.47;25.84;99684.16;5091237;28;20270;-27
2024/03/23 09:38:09;;;;;;;9.93;6.00;;;;;;;21.67;26.77;99668.94;5091002;28;20168;-29
2024/03/23 09:40:43;;;;;;;8.10;5.82;;;;;;;20.79;27.70;99683.78;5090166;28;20035;-28
2024/03/23 09:43:09;;;;;;;8.05;5.60;;;;;;;20.85;28.99;99680.81;5090992;28;20028;-26
2024/03/23 09:45:39;;;;;;;11.70;5.68;;;;;;;21.02;28.24;99668.91;5090835;28;20031;-27
2024/03/23 09:48:06;;;;;;;10.63;5.53;;;;;;;21.02;27.57;99672.41;5091308;28;20020;-28
2024/03/23 09:50:32;;;;;;;7.47;5.28;;;;;;;20.30;28.79;99666.22;5091016;28;20086;-27
2024/03/23 09:52:57;;;;;;;8.65;5.43;;;;;;;21.00;28.08;99660.22;5091146;28;20486;-27
2024/03/23 09:55:24;;;;;;;10.57;5.78;;;;;;;21.50;26.98;99658.47;5090757;28;20024;-28
2024/03/23 09:57:50;;;;;;;11.68;5.30;;;;;;;21.24;28.05;99653.13;5091415;28;20073;-28
2024/03/23 10:00:15;;;;;;;7.68;5.45;;;;;;;21.05;27.71;99647.50;5091018;28;20070;-27
2024/03/23 10:02:41;;;;;;;9.52;5.32;;;;;;;21.47;27.01;99649.00;5091051;28;20047;-28
2024/03/23 10:05:28;;;;;;;9.40;5.30;;;;;;;20.62;28.26;99651.63;5091025;28;20103;-27
2024/03/23 10:07:53;;;;;;;9.18;5.32;;;;;;;20.96;27.64;99637.53;5090693;28;20110;-28
2024/03/23 10:10:21;;;;;;;7.55;5.28;;;;;;;20.63;28.32;99642.47;5091338;28;20465;-27
2024/03/23 10:12:50;;;;;;;8.57;5.57;;;;;;;20.13;28.85;99627.88;5094120;28;20077;-29
2024/03/23 10:15:25;;;;;;;11.35;5.63;;;;;;;20.08;28.01;99628.66;5095000;28;20024;-28
2024/03/23 10:17:51;;;;;;;8.77;5.05;;;;;;;20.40;28.23;99622.19;5094818;28;20032;-27
2024/03/23 10:20:22;;;;;;;8.70;5.57;;;;;;;21.21;27.08;99620.38;5094596;28;20020;-28
2024/03/23 10:22:49;;;;;;;10.10;6.85;;;;;;;21.36;26.67;99611.41;5094140;28;20027;-27
2024/03/23 10:25:15;;;;;;;9.50;6.07;;;;;;;21.70;26.52;99608.81;5094925;28;20028;-27
2024/03/23 10:27:40;;;;;;;7.78;5.15;;;;;;;21.75;25.76;99591.72;5094321;28;20534;-27
2024/03/23 10:30:10;;;;;;;8.43;4.95;;;;;;;21.58;26.63;99598.31;5094205;28;20024;-26
2024/03/23 10:32:35;;;;;;;6.47;4.68;;;;;;;20.82;28.09;99596.72;5094180;28;20107;-28
2024/03/23 10:35:23;;;;;;;9.15;5.00;;;;;;;20.93;27.92;99589.41;5094085;28;20114;-27
2024/03/23 10:37:51;;;;;;;7.35;4.90;;;;;;;20.67;27.49;99581.34;5093854;28;20044;-28
2024/03/23 10:40:18;;;;;;;7.73;5.00;;;;;;;20.75;27.41;99582.69;5093900;28;20488;-27
2024/03/23 10:42:44;;;;;;;7.05;5.18;;;;;;;21.17;27.10;99571.47;5094007;28;20059;-26
2024/03/23 10:45:10;;;;;;;7.97;4.70;;;;;;;21.29;27.13;99563.00;5093654;28;20024;-27
2024/03/23 10:47:37;;;;;;;7.60;4.88;;;;;;;20.92;27.42;99574.25;5093042;28;20028;-30
2024/03/23 10:50:06;;;;;;;6.65;4.70;;;;;;;21.16;27.15;99569.03;5093153;28;20016;-26
2024/03/23 10:52:35;;;;;;;8.02;4.90;;;;;;;21.59;26.56;99561.22;5093147;28;20032;-27
2024/03/23 10:55:07;;;;;;;6.33;4.67;;;;;;;20.13;26.84;99554.94;5093553;28;20093;-27
2024/03/23 10:57:44;;;;;;;9.82;4.70;;;;;;;20.86;27.07;99549.13;5093014;28;20274;-27
2024/03/23 11:00:10;;;;;;;5.35;4.20;;;;;;;21.18;25.67;99551.41;5091198;28;20032;-42
2024/03/23 11:02:36;;;;;;;6.85;4.15;;;;;;;21.99;24.44;99538.47;5093283;28;20086;-38
2024/03/23 11:05:01;;;;;;;7.00;4.35;;;;;;;22.63;24.61;99538.41;5092956;28;20019;-39
2024/03/23 11:07:26;;;;;;;8.82;4.32;;;;;;;22.89;25.44;99522.63;5092874;28;20028;-37
2024/03/23 11:09:53;;;;;;;6.22;4.55;;;;;;;23.21;24.66;99523.88;5092790;28;20055;-39
2024/03/23 11:12:24;;;;;;;7.38;4.60;;;;;;;23.48;24.01;99523.22;5092814;28;20070;-44
2024/03/23 11:14:56;;;;;;;7.07;4.47;;;;;;;23.63;24.02;99519.47;5093339;28;20461;-37
2024/03/23 11:17:22;;;;;;;5.55;4.05;;;;;;;23.76;23.67;99507.00;5093385;28;20055;-36
2024/03/23 11:19:57;;;;;;;6.20;4.70;;;;;;;23.83;24.13;99507.47;5092871;28;20122;-39
2024/03/23 11:22:41;;;;;;;5.55;4.50;;;;;;;23.23;24.84;99500.78;5092618;28;20028;-38
2024/03/23 11:25:13;;;;;;;6.00;4.40;;;;;;;23.45;24.78;99491.22;5092661;28;20043;-38
2024/03/23 11:27:38;;;;;;;7.80;4.65;;;;;;;23.48;23.33;99487.13;5093015;28;20515;-39